sensor_id;sensor_type;location;lat;lon;timestamp;pressure;altitude;pressure_sealevel;temperature;humidity
78667;BME280;67983;59.830;30.198;2023-03-21T00:01:36;100211.28;;;8.50;61.17
78667;BME280;67983;59.830;30.198;2023-03-21T00:04:04;100203.03;;;8.55;61.47
78667;BME280;67983;59.830;30.198;2023-03-21T00:06:33;100208.16;;;8.58;62.11
78667;BME280;67983;59.830;30.198;2023-03-21T00:09:02;100205.41;;;8.59;62.66
78667;BME280;67983;59.830;30.198;2023-03-21T00:11:30;100192.34;;;8.56;62.13
78667;BME280;67983;59.830;30.198;2023-03-21T00:13:57;100190.75;;;8.54;62.58
78667;BME280;67983;59.830;30.198;2023-03-21T00:16:27;100181.88;;;8.55;62.80
78667;BME280;67983;59.830;30.198;2023-03-21T00:18:55;100179.97;;;8.57;62.66
78667;BME280;67983;59.830;30.198;2023-03-21T00:21:24;100169.50;;;8.55;62.71
78667;BME280;67983;59.830;30.198;2023-03-21T00:23:59;100181.69;;;8.58;62.87
78667;BME280;67983;59.830;30.198;2023-03-21T00:26:27;100181.69;;;8.58;62.93
78667;BME280;67983;59.830;30.198;2023-03-21T00:28:54;100177.25;;;8.58;63.15
78667;BME280;67983;59.830;30.198;2023-03-21T00:31:21;100175.34;;;8.60;63.16
78667;BME280;67983;59.830;30.198;2023-03-21T00:33:48;100171.03;;;8.59;62.90
78667;BME280;67983;59.830;30.198;2023-03-21T00:36:15;100165.72;;;8.59;63.23
78667;BME280;67983;59.830;30.198;2023-03-21T00:38:42;100169.13;;;8.61;63.25
78667;BME280;67983;59.830;30.198;2023-03-21T00:41:13;100172.50;;;8.63;63.25
78667;BME280;67983;59.830;30.198;2023-03-21T00:43:40;100182.22;;;8.63;63.06
78667;BME280;67983;59.830;30.198;2023-03-21T00:46:07;100177.34;;;8.57;63.35
78667;BME280;67983;59.830;30.198;2023-03-21T00:48:35;100164.63;;;8.49;63.45
78667;BME280;67983;59.830;30.198;2023-03-21T00:51:09;100160.41;;;8.47;64.07
78667;BME280;67983;59.830;30.198;2023-03-21T00:53:39;100168.13;;;8.50;64.06
78667;BME280;67983;59.830;30.198;2023-03-21T00:56:06;100162.53;;;8.54;64.08
78667;BME280;67983;59.830;30.198;2023-03-21T00:58:36;100169.28;;;8.46;63.90
78667;BME280;67983;59.830;30.198;2023-03-21T01:01:08;100159.09;;;8.39;64.16
78667;BME280;67983;59.830;30.198;2023-03-21T01:03:35;100162.59;;;8.40;64.51
78667;BME280;67983;59.830;30.198;2023-03-21T01:06:10;100162.78;;;8.37;64.49
78667;BME280;67983;59.830;30.198;2023-03-21T01:08:39;100154.97;;;8.35;64.42
78667;BME280;67983;59.830;30.198;2023-03-21T01:11:10;100169.41;;;8.30;63.97
78667;BME280;67983;59.830;30.198;2023-03-21T01:13:39;100168.66;;;8.28;64.41
78667;BME280;67983;59.830;30.198;2023-03-21T01:16:07;100158.09;;;8.28;64.41
78667;BME280;67983;59.830;30.198;2023-03-21T01:18:37;100163.44;;;8.26;64.14
78667;BME280;67983;59.830;30.198;2023-03-21T01:21:07;100167.16;;;8.24;64.28
78667;BME280;67983;59.830;30.198;2023-03-21T01:23:39;100145.03;;;8.12;64.32
78667;BME280;67983;59.830;30.198;2023-03-21T01:26:07;100176.22;;;8.20;64.31
78667;BME280;67983;59.830;30.198;2023-03-21T01:28:36;100177.19;;;8.19;63.98
78667;BME280;67983;59.830;30.198;2023-03-21T01:31:05;100178.03;;;8.19;64.01
78667;BME280;67983;59.830;30.198;2023-03-21T01:33:37;100182.59;;;8.03;65.04
78667;BME280;67983;59.830;30.198;2023-03-21T01:36:05;100176.91;;;7.82;65.09
78667;BME280;67983;59.830;30.198;2023-03-21T01:38:51;100180.88;;;7.75;65.86
78667;BME280;67983;59.830;30.198;2023-03-21T01:41:24;100177.78;;;7.68;65.55
78667;BME280;67983;59.830;30.198;2023-03-21T01:43:51;100178.53;;;7.70;66.16
78667;BME280;67983;59.830;30.198;2023-03-21T01:46:36;100181.81;;;7.74;66.03
78667;BME280;67983;59.830;30.198;2023-03-21T01:49:38;100184.25;;;7.77;65.76
78667;BME280;67983;59.830;30.198;2023-03-21T01:52:36;100182.38;;;7.65;65.96
78667;BME280;67983;59.830;30.198;2023-03-21T01:55:13;100180.44;;;7.40;65.94
78667;BME280;67983;59.830;30.198;2023-03-21T01:57:55;100188.13;;;7.14;66.91
78667;BME280;67983;59.830;30.198;2023-03-21T02:00:25;100180.56;;;6.94;66.89
78667;BME280;67983;59.830;30.198;2023-03-21T02:03:08;100186.00;;;6.77;67.65
78667;BME280;67983;59.830;30.198;2023-03-21T02:05:51;100186.53;;;6.68;68.27
78667;BME280;67983;59.830;30.198;2023-03-21T02:08:22;100179.94;;;6.61;68.79
78667;BME280;67983;59.830;30.198;2023-03-21T02:10:50;100179.06;;;6.60;68.60
78667;BME280;67983;59.830;30.198;2023-03-21T02:13:31;100185.78;;;6.66;68.46
78667;BME280;67983;59.830;30.198;2023-03-21T02:16:01;100177.84;;;6.66;68.85
78667;BME280;67983;59.830;30.198;2023-03-21T02:18:37;100181.25;;;6.68;69.10
78667;BME280;67983;59.830;30.198;2023-03-21T02:21:41;100181.06;;;6.71;68.46
78667;BME280;67983;59.830;30.198;2023-03-21T02:24:35;100180.31;;;6.69;68.34
78667;BME280;67983;59.830;30.198;2023-03-21T02:27:11;100187.94;;;6.73;68.90
78667;BME280;67983;59.830;30.198;2023-03-21T02:33:09;100192.72;;;6.67;67.86
78667;BME280;67983;59.830;30.198;2023-03-21T02:35:53;100191.75;;;6.53;67.02
78667;BME280;67983;59.830;30.198;2023-03-21T02:38:31;100195.34;;;6.37;67.15
78667;BME280;67983;59.830;30.198;2023-03-21T02:41:05;100189.34;;;6.19;66.54
78667;BME280;67983;59.830;30.198;2023-03-21T02:43:41;100197.75;;;6.10;66.50
78667;BME280;67983;59.830;30.198;2023-03-21T02:46:15;100192.47;;;5.94;66.04
78667;BME280;67983;59.830;30.198;2023-03-21T02:48:47;100201.91;;;5.82;66.43
78667;BME280;67983;59.830;30.198;2023-03-21T02:51:20;100193.91;;;5.68;65.48
78667;BME280;67983;59.830;30.198;2023-03-21T02:53:53;100201.78;;;5.52;65.37
78667;BME280;67983;59.830;30.198;2023-03-21T02:56:23;100207.00;;;5.36;65.70
78667;BME280;67983;59.830;30.198;2023-03-21T02:58:53;100199.41;;;5.30;65.88
78667;BME280;67983;59.830;30.198;2023-03-21T03:01:22;100205.94;;;5.23;65.86
78667;BME280;67983;59.830;30.198;2023-03-21T03:03:51;100205.56;;;5.14;65.66
78667;BME280;67983;59.830;30.198;2023-03-21T03:06:20;100208.66;;;5.04;66.23
78667;BME280;67983;59.830;30.198;2023-03-21T03:09:05;100210.22;;;4.91;65.69
78667;BME280;67983;59.830;30.198;2023-03-21T03:11:40;100207.13;;;4.83;66.47
78667;BME280;67983;59.830;30.198;2023-03-21T03:14:23;100215.25;;;4.78;66.23
78667;BME280;67983;59.830;30.198;2023-03-21T03:17:02;100211.03;;;4.74;66.41
78667;BME280;67983;59.830;30.198;2023-03-21T03:19:45;100211.84;;;4.76;67.04
78667;BME280;67983;59.830;30.198;2023-03-21T03:22:22;100210.75;;;4.80;67.01
78667;BME280;67983;59.830;30.198;2023-03-21T03:24:56;100221.09;;;4.84;66.91
78667;BME280;67983;59.830;30.198;2023-03-21T03:27:29;100220.25;;;4.83;66.60
78667;BME280;67983;59.830;30.198;2023-03-21T03:30:05;100216.88;;;4.81;66.59
78667;BME280;67983;59.830;30.198;2023-03-21T03:32:37;100219.56;;;4.79;66.50
78667;BME280;67983;59.830;30.198;2023-03-21T03:35:14;100225.91;;;4.75;67.22
78667;BME280;67983;59.830;30.198;2023-03-21T03:37:47;100234.84;;;4.71;66.56
78667;BME280;67983;59.830;30.198;2023-03-21T03:40:24;100238.66;;;4.66;66.31
78667;BME280;67983;59.830;30.198;2023-03-21T03:43:07;100232.81;;;4.59;66.77
78667;BME280;67983;59.830;30.198;2023-03-21T03:45:42;100240.59;;;4.62;67.03
78667;BME280;67983;59.830;30.198;2023-03-21T03:48:14;100245.84;;;4.62;66.91
78667;BME280;67983;59.830;30.198;2023-03-21T03:50:49;100248.59;;;4.59;66.82
78667;BME280;67983;59.830;30.198;2023-03-21T03:53:27;100246.91;;;4.58;66.67
78667;BME280;67983;59.830;30.198;2023-03-21T03:55:58;100254.25;;;4.52;66.71
78667;BME280;67983;59.830;30.198;2023-03-21T03:58:29;100257.78;;;4.50;67.04
78667;BME280;67983;59.830;30.198;2023-03-21T04:00:56;100260.34;;;4.52;66.78
78667;BME280;67983;59.830;30.198;2023-03-21T04:03:27;100257.56;;;4.55;67.19
78667;BME280;67983;59.830;30.198;2023-03-21T04:05:54;100263.50;;;4.59;67.20
78667;BME280;67983;59.830;30.198;2023-03-21T04:08:23;100259.91;;;4.61;66.91
78667;BME280;67983;59.830;30.198;2023-03-21T04:10:53;100271.28;;;4.62;66.50
78667;BME280;67983;59.830;30.198;2023-03-21T04:13:24;100274.75;;;4.62;66.58
78667;BME280;67983;59.830;30.198;2023-03-21T04:16:17;100279.06;;;4.63;66.89
78667;BME280;67983;59.830;30.198;2023-03-21T04:19:10;100285.09;;;4.65;66.89
78667;BME280;67983;59.830;30.198;2023-03-21T04:21:40;100286.72;;;4.68;67.12
78667;BME280;67983;59.830;30.198;2023-03-21T04:24:07;100286.56;;;4.71;66.86
78667;BME280;67983;59.830;30.198;2023-03-21T04:26:37;100296.47;;;4.66;66.46
78667;BME280;67983;59.830;30.198;2023-03-21T04:29:24;100292.22;;;4.63;66.82
78667;BME280;67983;59.830;30.198;2023-03-21T04:32:12;100295.03;;;4.59;66.61
78667;BME280;67983;59.830;30.198;2023-03-21T04:34:47;100296.13;;;4.55;66.61
78667;BME280;67983;59.830;30.198;2023-03-21T04:37:22;100292.78;;;4.51;66.70
78667;BME280;67983;59.830;30.198;2023-03-21T04:40:18;100295.28;;;4.54;66.98
78667;BME280;67983;59.830;30.198;2023-03-21T04:46:06;100308.25;;;4.57;66.64
78667;BME280;67983;59.830;30.198;2023-03-21T04:48:33;100302.91;;;4.59;66.80
78667;BME280;67983;59.830;30.198;2023-03-21T04:51:01;100300.94;;;4.64;67.17
78667;BME280;67983;59.830;30.198;2023-03-21T04:53:31;100304.41;;;4.64;66.85
78667;BME280;67983;59.830;30.198;2023-03-21T04:55:59;100306.13;;;4.65;66.72
78667;BME280;67983;59.830;30.198;2023-03-21T04:58:26;100315.63;;;4.68;66.79
78667;BME280;67983;59.830;30.198;2023-03-21T05:00:54;100309.22;;;4.73;67.04
78667;BME280;67983;59.830;30.198;2023-03-21T05:03:24;100320.38;;;4.78;66.62
78667;BME280;67983;59.830;30.198;2023-03-21T05:05:54;100315.19;;;4.77;66.38
78667;BME280;67983;59.830;30.198;2023-03-21T05:08:20;100318.78;;;4.74;66.49
78667;BME280;67983;59.830;30.198;2023-03-21T05:10:48;100325.47;;;4.82;66.61
78667;BME280;67983;59.830;30.198;2023-03-21T05:13:17;100322.69;;;4.85;66.66
78667;BME280;67983;59.830;30.198;2023-03-21T05:15:44;100321.69;;;4.87;66.54
78667;BME280;67983;59.830;30.198;2023-03-21T05:18:13;100319.91;;;4.88;66.56
78667;BME280;67983;59.830;30.198;2023-03-21T05:21:01;100318.06;;;4.90;66.41
78667;BME280;67983;59.830;30.198;2023-03-21T05:23:29;100320.63;;;4.91;66.32
78667;BME280;67983;59.830;30.198;2023-03-21T05:29:50;100328.44;;;4.93;66.47
78667;BME280;67983;59.830;30.198;2023-03-21T05:32:23;100326.34;;;4.99;66.51
78667;BME280;67983;59.830;30.198;2023-03-21T05:34:50;100334.09;;;5.02;66.25
78667;BME280;67983;59.830;30.198;2023-03-21T05:37:22;100345.16;;;5.09;66.51
78667;BME280;67983;59.830;30.198;2023-03-21T05:39:50;100350.09;;;5.15;66.08
78667;BME280;67983;59.830;30.198;2023-03-21T05:42:25;100358.09;;;5.14;66.12
78667;BME280;67983;59.830;30.198;2023-03-21T05:44:54;100350.50;;;5.07;66.76
78667;BME280;67983;59.830;30.198;2023-03-21T05:47:27;100361.47;;;5.16;66.42
78667;BME280;67983;59.830;30.198;2023-03-21T05:49:57;100352.66;;;5.17;66.26
78667;BME280;67983;59.830;30.198;2023-03-21T05:52:27;100363.81;;;5.22;66.49
78667;BME280;67983;59.830;30.198;2023-03-21T05:54:54;100354.94;;;5.24;66.46
78667;BME280;67983;59.830;30.198;2023-03-21T05:57:23;100360.72;;;5.31;66.17
78667;BME280;67983;59.830;30.198;2023-03-21T05:59:59;100355.31;;;5.34;66.07
78667;BME280;67983;59.830;30.198;2023-03-21T06:02:29;100364.69;;;5.39;66.28
78667;BME280;67983;59.830;30.198;2023-03-21T06:05:00;100358.09;;;5.48;66.36
78667;BME280;67983;59.830;30.198;2023-03-21T06:07:32;100361.28;;;5.55;65.75
78667;BME280;67983;59.830;30.198;2023-03-21T06:10:00;100366.47;;;5.56;66.01
78667;BME280;67983;59.830;30.198;2023-03-21T06:12:28;100365.78;;;5.53;65.40
78667;BME280;67983;59.830;30.198;2023-03-21T06:15:21;100364.97;;;5.51;65.49
78667;BME280;67983;59.830;30.198;2023-03-21T06:17:55;100367.75;;;5.48;65.10
78667;BME280;67983;59.830;30.198;2023-03-21T06:20:23;100376.44;;;5.50;65.48
78667;BME280;67983;59.830;30.198;2023-03-21T06:22:54;100381.06;;;5.45;65.27
78667;BME280;67983;59.830;30.198;2023-03-21T06:25:21;100381.75;;;5.48;65.34
78667;BME280;67983;59.830;30.198;2023-03-21T06:27:48;100378.59;;;5.59;65.64
78667;BME280;67983;59.830;30.198;2023-03-21T06:30:21;100388.81;;;5.65;65.24
78667;BME280;67983;59.830;30.198;2023-03-21T06:33:03;100386.97;;;5.67;64.79
78667;BME280;67983;59.830;30.198;2023-03-21T06:35:32;100396.69;;;5.65;64.38
78667;BME280;67983;59.830;30.198;2023-03-21T06:38:01;100396.34;;;5.55;64.52
78667;BME280;67983;59.830;30.198;2023-03-21T06:40:34;100398.66;;;5.44;64.15
78667;BME280;67983;59.830;30.198;2023-03-21T06:43:03;100406.00;;;5.37;64.73
78667;BME280;67983;59.830;30.198;2023-03-21T06:45:30;100405.16;;;5.37;65.00
78667;BME280;67983;59.830;30.198;2023-03-21T06:47:57;100415.72;;;5.35;65.08
78667;BME280;67983;59.830;30.198;2023-03-21T06:50:42;100409.78;;;5.32;64.46
78667;BME280;67983;59.830;30.198;2023-03-21T06:53:17;100415.72;;;5.35;64.74
78667;BME280;67983;59.830;30.198;2023-03-21T06:56:04;100422.31;;;5.27;64.09
78667;BME280;67983;59.830;30.198;2023-03-21T06:58:33;100425.69;;;5.12;64.37
78667;BME280;67983;59.830;30.198;2023-03-21T07:01:01;100427.81;;;5.03;65.02
78667;BME280;67983;59.830;30.198;2023-03-21T07:03:32;100428.88;;;4.99;64.95
78667;BME280;67983;59.830;30.198;2023-03-21T07:06:05;100431.44;;;5.01;64.97
78667;BME280;67983;59.830;30.198;2023-03-21T07:08:34;100437.84;;;4.95;64.71
78667;BME280;67983;59.830;30.198;2023-03-21T07:11:01;100427.13;;;4.81;65.10
78667;BME280;67983;59.830;30.198;2023-03-21T07:13:32;100435.81;;;4.83;65.26
78667;BME280;67983;59.830;30.198;2023-03-21T07:16:04;100431.31;;;4.85;65.21
78667;BME280;67983;59.830;30.198;2023-03-21T07:18:36;100426.56;;;4.93;64.97
78667;BME280;67983;59.830;30.198;2023-03-21T07:21:04;100434.84;;;5.03;65.41
78667;BME280;67983;59.830;30.198;2023-03-21T07:23:31;100429.72;;;5.19;65.29
78667;BME280;67983;59.830;30.198;2023-03-21T07:26:00;100429.88;;;5.33;65.09
78667;BME280;67983;59.830;30.198;2023-03-21T07:28:29;100433.19;;;5.55;64.98
78667;BME280;67983;59.830;30.198;2023-03-21T07:31:01;100437.75;;;5.69;64.81
78667;BME280;67983;59.830;30.198;2023-03-21T07:33:30;100450.44;;;5.78;64.16
78667;BME280;67983;59.830;30.198;2023-03-21T07:36:00;100453.00;;;5.80;63.81
78667;BME280;67983;59.830;30.198;2023-03-21T07:38:28;100458.41;;;5.77;63.11
78667;BME280;67983;59.830;30.198;2023-03-21T07:40:57;100445.09;;;5.62;62.78
78667;BME280;67983;59.830;30.198;2023-03-21T07:43:33;100444.84;;;5.50;63.40
78667;BME280;67983;59.830;30.198;2023-03-21T07:46:07;100448.09;;;5.37;63.18
78667;BME280;67983;59.830;30.198;2023-03-21T07:48:36;100453.03;;;5.26;63.48
78667;BME280;67983;59.830;30.198;2023-03-21T07:51:05;100455.81;;;5.23;63.10
78667;BME280;67983;59.830;30.198;2023-03-21T07:53:34;100456.00;;;5.19;63.64
78667;BME280;67983;59.830;30.198;2023-03-21T07:56:01;100462.19;;;5.18;63.19
78667;BME280;67983;59.830;30.198;2023-03-21T07:58:33;100463.34;;;5.12;63.67
78667;BME280;67983;59.830;30.198;2023-03-21T08:01:02;100457.16;;;5.13;64.07
78667;BME280;67983;59.830;30.198;2023-03-21T08:03:32;100465.06;;;5.13;64.25
78667;BME280;67983;59.830;30.198;2023-03-21T08:05:59;100460.72;;;5.12;64.01
78667;BME280;67983;59.830;30.198;2023-03-21T08:08:28;100468.72;;;5.28;64.19
78667;BME280;67983;59.830;30.198;2023-03-21T08:10:58;100463.81;;;5.39;63.45
78667;BME280;67983;59.830;30.198;2023-03-21T08:13:35;100465.81;;;5.51;63.25
78667;BME280;67983;59.830;30.198;2023-03-21T08:16:02;100472.34;;;5.61;63.63
78667;BME280;67983;59.830;30.198;2023-03-21T08:18:30;100472.25;;;5.80;62.93
78667;BME280;67983;59.830;30.198;2023-03-21T08:21:00;100482.31;;;5.91;62.88
78667;BME280;67983;59.830;30.198;2023-03-21T08:23:28;100486.56;;;5.93;61.80
78667;BME280;67983;59.830;30.198;2023-03-21T08:25:56;100484.69;;;5.95;61.80
78667;BME280;67983;59.830;30.198;2023-03-21T08:28:23;100481.69;;;6.03;61.29
78667;BME280;67983;59.830;30.198;2023-03-21T08:30:52;100494.31;;;6.14;61.22
78667;BME280;67983;59.830;30.198;2023-03-21T08:33:19;100490.66;;;6.16;60.83
78667;BME280;67983;59.830;30.198;2023-03-21T08:35:47;100494.75;;;6.22;61.05
78667;BME280;67983;59.830;30.198;2023-03-21T08:38:14;100493.56;;;6.27;60.58
78667;BME280;67983;59.830;30.198;2023-03-21T08:40:41;100498.94;;;6.26;60.01
78667;BME280;67983;59.830;30.198;2023-03-21T08:43:08;100499.41;;;6.17;59.93
78667;BME280;67983;59.830;30.198;2023-03-21T08:45:35;100505.69;;;6.14;59.99
78667;BME280;67983;59.830;30.198;2023-03-21T08:48:04;100501.13;;;6.18;59.84
78667;BME280;67983;59.830;30.198;2023-03-21T08:50:35;100512.59;;;6.17;60.09
78667;BME280;67983;59.830;30.198;2023-03-21T08:53:02;100514.91;;;6.23;59.51
78667;BME280;67983;59.830;30.198;2023-03-21T08:55:29;100520.84;;;6.26;59.29
78667;BME280;67983;59.830;30.198;2023-03-21T08:58:02;100525.44;;;6.23;58.82
78667;BME280;67983;59.830;30.198;2023-03-21T09:00:30;100538.16;;;6.15;58.96
78667;BME280;67983;59.830;30.198;2023-03-21T09:02:56;100527.47;;;6.18;59.34
78667;BME280;67983;59.830;30.198;2023-03-21T09:05:25;100531.19;;;6.31;59.46
78667;BME280;67983;59.830;30.198;2023-03-21T09:07:53;100530.22;;;6.49;59.20
78667;BME280;67983;59.830;30.198;2023-03-21T09:10:22;100529.25;;;6.68;58.38
78667;BME280;67983;59.830;30.198;2023-03-21T09:12:51;100532.69;;;6.85;58.08
78667;BME280;67983;59.830;30.198;2023-03-21T09:15:21;100531.94;;;6.99;57.62
78667;BME280;67983;59.830;30.198;2023-03-21T09:17:51;100535.47;;;7.15;57.20
78667;BME280;67983;59.830;30.198;2023-03-21T09:20:23;100529.41;;;7.29;57.11
78667;BME280;67983;59.830;30.198;2023-03-21T09:23:01;100528.56;;;7.44;56.73
78667;BME280;67983;59.830;30.198;2023-03-21T09:25:28;100528.56;;;7.60;55.92
78667;BME280;67983;59.830;30.198;2023-03-21T09:27:56;100539.56;;;7.68;55.50
78667;BME280;67983;59.830;30.198;2023-03-21T09:30:24;100536.53;;;7.74;55.05
78667;BME280;67983;59.830;30.198;2023-03-21T09:32:51;100545.56;;;7.86;55.14
78667;BME280;67983;59.830;30.198;2023-03-21T09:35:20;100546.28;;;8.04;55.20
78667;BME280;67983;59.830;30.198;2023-03-21T09:37:49;100549.53;;;8.23;55.41
78667;BME280;67983;59.830;30.198;2023-03-21T09:40:20;100548.25;;;8.30;54.17
78667;BME280;67983;59.830;30.198;2023-03-21T09:42:56;100550.56;;;8.36;53.82
78667;BME280;67983;59.830;30.198;2023-03-21T09:45:33;100559.66;;;8.47;53.70
78667;BME280;67983;59.830;30.198;2023-03-21T09:48:04;100557.78;;;8.63;53.04
78667;BME280;67983;59.830;30.198;2023-03-21T09:50:34;100561.00;;;8.82;52.88
78667;BME280;67983;59.830;30.198;2023-03-21T09:53:12;100562.91;;;8.94;52.67
78667;BME280;67983;59.830;30.198;2023-03-21T09:56:12;100563.44;;;9.14;51.77
78667;BME280;67983;59.830;30.198;2023-03-21T09:58:43;100572.78;;;9.34;50.49
78667;BME280;67983;59.830;30.198;2023-03-21T10:01:15;100554.66;;;9.27;49.23
78667;BME280;67983;59.830;30.198;2023-03-21T10:03:52;100571.66;;;9.38;49.31
78667;BME280;67983;59.830;30.198;2023-03-21T10:06:22;100574.78;;;9.71;48.05
78667;BME280;67983;59.830;30.198;2023-03-21T10:08:57;100573.16;;;9.83;47.10
78667;BME280;67983;59.830;30.198;2023-03-21T10:11:30;100578.69;;;9.66;47.00
78667;BME280;67983;59.830;30.198;2023-03-21T10:14:02;100583.78;;;9.27;46.49
78667;BME280;67983;59.830;30.198;2023-03-21T10:16:34;100584.63;;;9.28;46.20
78667;BME280;67983;59.830;30.198;2023-03-21T10:19:09;100580.94;;;9.02;46.70
78667;BME280;67983;59.830;30.198;2023-03-21T10:21:40;100595.22;;;9.28;47.07
78667;BME280;67983;59.830;30.198;2023-03-21T10:24:17;100587.75;;;10.03;46.48
78667;BME280;67983;59.830;30.198;2023-03-21T10:26:51;100589.72;;;10.91;45.25
78667;BME280;67983;59.830;30.198;2023-03-21T10:29:21;100595.31;;;11.74;43.92
78667;BME280;67983;59.830;30.198;2023-03-21T10:31:50;100605.19;;;11.35;42.66
78667;BME280;67983;59.830;30.198;2023-03-21T10:34:24;100592.97;;;10.57;42.72
78667;BME280;67983;59.830;30.198;2023-03-21T10:36:58;100595.75;;;10.42;42.90
78667;BME280;67983;59.830;30.198;2023-03-21T10:39:34;100601.81;;;10.57;42.67
78667;BME280;67983;59.830;30.198;2023-03-21T10:42:17;100595.78;;;10.93;42.00
78667;BME280;67983;59.830;30.198;2023-03-21T10:44:51;100594.06;;;11.67;40.48
78667;BME280;67983;59.830;30.198;2023-03-21T10:47:19;100593.75;;;12.43;38.80
78667;BME280;67983;59.830;30.198;2023-03-21T10:49:47;100596.28;;;13.58;37.02
78667;BME280;67983;59.830;30.198;2023-03-21T10:52:19;100605.81;;;14.58;34.67
78667;BME280;67983;59.830;30.198;2023-03-21T10:54:48;100599.75;;;15.69;33.15
78667;BME280;67983;59.830;30.198;2023-03-21T10:57:20;100602.72;;;15.66;32.35
78667;BME280;67983;59.830;30.198;2023-03-21T10:59:51;100603.91;;;16.21;30.49
78667;BME280;67983;59.830;30.198;2023-03-21T11:02:24;100606.00;;;16.66;30.73
78667;BME280;67983;59.830;30.198;2023-03-21T11:04:54;100607.91;;;17.49;28.79
78667;BME280;67983;59.830;30.198;2023-03-21T11:07:27;100615.25;;;18.02;27.97
78667;BME280;67983;59.830;30.198;2023-03-21T11:09:58;100615.19;;;18.47;26.72
78667;BME280;67983;59.830;30.198;2023-03-21T11:12:31;100623.97;;;18.93;27.55
78667;BME280;67983;59.830;30.198;2023-03-21T11:15:24;100622.44;;;19.77;26.63
78667;BME280;67983;59.830;30.198;2023-03-21T11:17:52;100623.28;;;20.60;24.84
78667;BME280;67983;59.830;30.198;2023-03-21T11:20:20;100621.03;;;21.21;24.09
78667;BME280;67983;59.830;30.198;2023-03-21T11:22:53;100634.75;;;21.58;22.87
78667;BME280;67983;59.830;30.198;2023-03-21T11:25:30;100631.56;;;21.55;22.37
78667;BME280;67983;59.830;30.198;2023-03-21T11:28:08;100634.34;;;21.38;22.22
78667;BME280;67983;59.830;30.198;2023-03-21T11:30:48;100624.13;;;21.65;23.34
78667;BME280;67983;59.830;30.198;2023-03-21T11:33:17;100627.03;;;21.86;22.01
78667;BME280;67983;59.830;30.198;2023-03-21T11:35:59;100619.00;;;21.78;21.86
78667;BME280;67983;59.830;30.198;2023-03-21T11:38:35;100614.00;;;22.29;21.77
78667;BME280;67983;59.830;30.198;2023-03-21T11:41:04;100620.22;;;22.75;21.45
78667;BME280;67983;59.830;30.198;2023-03-21T11:43:38;100623.41;;;22.56;20.26
78667;BME280;67983;59.830;30.198;2023-03-21T11:46:07;100621.41;;;22.73;20.70
78667;BME280;67983;59.830;30.198;2023-03-21T11:48:45;100618.91;;;23.23;20.54
78667;BME280;67983;59.830;30.198;2023-03-21T11:51:30;100621.22;;;23.85;19.21
78667;BME280;67983;59.830;30.198;2023-03-21T11:54:14;100619.16;;;24.38;19.85
78667;BME280;67983;59.830;30.198;2023-03-21T11:56:47;100618.28;;;25.09;19.23
78667;BME280;67983;59.830;30.198;2023-03-21T11:59:47;100609.91;;;25.73;17.80
78667;BME280;67983;59.830;30.198;2023-03-21T12:02:41;100617.03;;;25.39;17.36
78667;BME280;67983;59.830;30.198;2023-03-21T12:05:16;100611.47;;;24.91;17.48
78667;BME280;67983;59.830;30.198;2023-03-21T12:07:51;100619.78;;;24.62;17.55
78667;BME280;67983;59.830;30.198;2023-03-21T12:10:41;100619.66;;;24.49;17.73
78667;BME280;67983;59.830;30.198;2023-03-21T12:13:19;100620.94;;;24.31;17.78
78667;BME280;67983;59.830;30.198;2023-03-21T12:15:59;100624.38;;;24.40;18.31
78667;BME280;67983;59.830;30.198;2023-03-21T12:18:44;100625.28;;;24.68;18.74
78667;BME280;67983;59.830;30.198;2023-03-21T12:25:04;100621.06;;;23.13;18.04
78667;BME280;67983;59.830;30.198;2023-03-21T12:27:52;100619.53;;;22.96;18.35
78667;BME280;67983;59.830;30.198;2023-03-21T12:30:40;100624.88;;;22.81;18.08
78667;BME280;67983;59.830;30.198;2023-03-21T12:33:27;100615.31;;;22.33;18.68
78667;BME280;67983;59.830;30.198;2023-03-21T12:36:16;100618.47;;;21.83;18.83
78667;BME280;67983;59.830;30.198;2023-03-21T12:38:56;100619.38;;;21.03;19.35
78667;BME280;67983;59.830;30.198;2023-03-21T12:41:32;100615.38;;;20.58;19.75
78667;BME280;67983;59.830;30.198;2023-03-21T12:44:03;100613.38;;;20.52;19.92
78667;BME280;67983;59.830;30.198;2023-03-21T12:46:35;100619.53;;;20.28;20.19
78667;BME280;67983;59.830;30.198;2023-03-21T12:49:13;100614.13;;;20.28;20.40
78667;BME280;67983;59.830;30.198;2023-03-21T12:51:54;100615.50;;;20.24;20.11
78667;BME280;67983;59.830;30.198;2023-03-21T12:54:31;100625.16;;;19.51;20.95
78667;BME280;67983;59.830;30.198;2023-03-21T12:57:08;100623.50;;;18.98;21.42
78667;BME280;67983;59.830;30.198;2023-03-21T12:59:38;100631.88;;;18.69;21.94
78667;BME280;67983;59.830;30.198;2023-03-21T13:02:18;100611.50;;;18.31;22.16
78667;BME280;67983;59.830;30.198;2023-03-21T13:05:03;100612.19;;;18.15;22.20
78667;BME280;67983;59.830;30.198;2023-03-21T13:08:00;100622.19;;;18.58;21.93
78667;BME280;67983;59.830;30.198;2023-03-21T13:10:29;100626.91;;;18.82;21.57
78667;BME280;67983;59.830;30.198;2023-03-21T13:13:04;100632.03;;;18.93;21.21
78667;BME280;67983;59.830;30.198;2023-03-21T13:15:46;100617.66;;;18.59;21.65
78667;BME280;67983;59.830;30.198;2023-03-21T13:18:27;100617.56;;;18.33;21.48
78667;BME280;67983;59.830;30.198;2023-03-21T13:21:00;100614.78;;;17.89;21.44
78667;BME280;67983;59.830;30.198;2023-03-21T13:23:38;100624.66;;;17.33;22.19
78667;BME280;67983;59.830;30.198;2023-03-21T13:26:09;100616.25;;;17.09;22.83
78667;BME280;67983;59.830;30.198;2023-03-21T13:28:42;100620.25;;;16.47;23.51
78667;BME280;67983;59.830;30.198;2023-03-21T13:31:16;100624.53;;;15.71;23.95
78667;BME280;67983;59.830;30.198;2023-03-21T13:37:17;100624.41;;;14.38;26.07